sensor_id;sensor_type;location;lat;lon;timestamp;pressure;altitude;pressure_sealevel;temperature;humidity
48778;BME280;34578;0.000;0.000;2023-03-15T00:01:29;96344.09;;;16.85;50.15
48778;BME280;34578;0.000;0.000;2023-03-15T00:06:31;96353.38;;;16.84;50.58
48778;BME280;34578;0.000;0.000;2023-03-15T00:11:32;96369.38;;;16.88;59.03
48778;BME280;34578;0.000;0.000;2023-03-15T00:16:33;96372.78;;;16.90;59.24
48778;BME280;34578;0.000;0.000;2023-03-15T00:21:34;96394.69;;;16.94;54.07
48778;BME280;34578;0.000;0.000;2023-03-15T00:26:34;96404.78;;;16.91;52.78
48778;BME280;34578;0.000;0.000;2023-03-15T00:31:35;96406.50;;;16.89;52.92
48778;BME280;34578;0.000;0.000;2023-03-15T00:36:35;96428.38;;;16.88;53.07
48778;BME280;34578;0.000;0.000;2023-03-15T00:41:36;96429.25;;;16.89;52.51
48778;BME280;34578;0.000;0.000;2023-03-15T00:46:37;96446.94;;;16.89;53.34
48778;BME280;34578;0.000;0.000;2023-03-15T00:51:37;96458.75;;;16.90;52.18
48778;BME280;34578;0.000;0.000;2023-03-15T00:56:38;96456.19;;;16.88;52.40
48778;BME280;34578;0.000;0.000;2023-03-15T01:01:39;96464.63;;;16.87;52.60
48778;BME280;34578;0.000;0.000;2023-03-15T01:06:43;96472.22;;;16.89;52.32
48778;BME280;34578;0.000;0.000;2023-03-15T01:11:44;96485.69;;;16.88;52.29
48778;BME280;34578;0.000;0.000;2023-03-15T01:16:45;96479.81;;;16.87;51.79
48778;BME280;34578;0.000;0.000;2023-03-15T01:21:45;96498.31;;;16.88;51.82
48778;BME280;34578;0.000;0.000;2023-03-15T01:26:47;96510.97;;;16.88;58.67
48778;BME280;34578;0.000;0.000;2023-03-15T01:31:48;96519.41;;;16.91;58.62
48778;BME280;34578;0.000;0.000;2023-03-15T01:36:52;96516.88;;;16.93;57.84
48778;BME280;34578;0.000;0.000;2023-03-15T01:41:55;96523.59;;;16.88;52.94
48778;BME280;34578;0.000;0.000;2023-03-15T01:46:56;96529.53;;;16.88;52.80
48778;BME280;34578;0.000;0.000;2023-03-15T01:52:01;96525.31;;;16.87;52.50
48778;BME280;34578;0.000;0.000;2023-03-15T01:57:34;96524.44;;;16.87;52.39
48778;BME280;34578;0.000;0.000;2023-03-15T02:02:40;96522.75;;;16.86;52.22
48778;BME280;34578;0.000;0.000;2023-03-15T02:07:51;96530.34;;;16.84;51.80
48778;BME280;34578;0.000;0.000;2023-03-15T02:12:54;96522.75;;;16.80;51.50
48778;BME280;34578;0.000;0.000;2023-03-15T02:17:57;96535.41;;;16.84;51.52
48778;BME280;34578;0.000;0.000;2023-03-15T02:23:06;96535.41;;;16.84;51.36
48778;BME280;34578;0.000;0.000;2023-03-15T02:28:09;96537.94;;;16.83;51.50
48778;BME280;34578;0.000;0.000;2023-03-15T02:33:20;96538.78;;;16.82;51.38
48778;BME280;34578;0.000;0.000;2023-03-15T02:38:23;96537.94;;;16.83;51.03
48778;BME280;34578;0.000;0.000;2023-03-15T02:43:25;96532.88;;;16.83;57.77
48778;BME280;34578;0.000;0.000;2023-03-15T02:48:30;96528.66;;;16.85;57.48
48778;BME280;34578;0.000;0.000;2023-03-15T02:53:32;96537.09;;;16.87;57.03
48778;BME280;34578;0.000;0.000;2023-03-15T02:58:32;96531.19;;;16.82;53.29
48778;BME280;34578;0.000;0.000;2023-03-15T03:03:35;96539.63;;;16.84;52.04
48778;BME280;34578;0.000;0.000;2023-03-15T03:08:36;96548.06;;;16.83;52.04
48778;BME280;34578;0.000;0.000;2023-03-15T03:13:38;96553.09;;;16.83;51.30
48778;BME280;34578;0.000;0.000;2023-03-15T03:18:39;96556.47;;;16.82;51.70
48778;BME280;34578;0.000;0.000;2023-03-15T03:23:41;96554.78;;;16.81;51.42
48778;BME280;34578;0.000;0.000;2023-03-15T03:28:46;96563.19;;;16.80;51.09
48778;BME280;34578;0.000;0.000;2023-03-15T03:33:47;96566.59;;;16.82;53.41
48778;BME280;34578;0.000;0.000;2023-03-15T03:38:47;96566.59;;;16.82;54.52
48778;BME280;34578;0.000;0.000;2023-03-15T03:43:48;96564.91;;;16.81;53.59
48778;BME280;34578;0.000;0.000;2023-03-15T03:48:49;96580.91;;;16.81;55.38
48778;BME280;34578;0.000;0.000;2023-03-15T03:53:49;96580.06;;;16.79;55.37
48778;BME280;34578;0.000;0.000;2023-03-15T03:58:50;96593.53;;;16.80;56.29
48778;BME280;34578;0.000;0.000;2023-03-15T04:03:55;96591.88;;;16.85;55.99
48778;BME280;34578;0.000;0.000;2023-03-15T04:08:57;96602.00;;;16.88;56.23
48778;BME280;34578;0.000;0.000;2023-03-15T04:14:04;96603.66;;;16.84;55.97
48778;BME280;34578;0.000;0.000;2023-03-15T04:19:06;96618.81;;;16.80;55.48
48778;BME280;34578;0.000;0.000;2023-03-15T04:24:08;96630.63;;;16.81;55.38
48778;BME280;34578;0.000;0.000;2023-03-15T04:29:35;96628.91;;;16.80;55.66
48778;BME280;34578;0.000;0.000;2023-03-15T04:34:54;96626.41;;;16.78;55.04
48778;BME280;34578;0.000;0.000;2023-03-15T04:40:15;96638.19;;;16.78;54.94
48778;BME280;34578;0.000;0.000;2023-03-15T04:45:45;96642.41;;;16.79;54.72
48778;BME280;34578;0.000;0.000;2023-03-15T04:50:58;96639.84;;;16.74;54.82
48778;BME280;34578;0.000;0.000;2023-03-15T04:56:28;96644.09;;;16.77;55.09
48778;BME280;34578;0.000;0.000;2023-03-15T05:01:41;96644.13;;;16.83;53.31
48778;BME280;34578;0.000;0.000;2023-03-15T05:06:51;96644.13;;;16.83;54.46
48778;BME280;34578;0.000;0.000;2023-03-15T05:12:10;96641.59;;;16.86;54.22
48778;BME280;34578;0.000;0.000;2023-03-15T05:17:31;96646.69;;;16.89;54.47
48778;BME280;34578;0.000;0.000;2023-03-15T05:22:35;96645.84;;;16.93;55.31
48778;BME280;34578;0.000;0.000;2023-03-15T05:27:54;96662.72;;;16.97;55.19
48778;BME280;34578;0.000;0.000;2023-03-15T05:33:27;96662.72;;;16.94;53.39
48778;BME280;34578;0.000;0.000;2023-03-15T05:38:54;96663.56;;;16.97;53.84
48778;BME280;34578;0.000;0.000;2023-03-15T05:44:18;96667.78;;;16.95;53.72
48778;BME280;34578;0.000;0.000;2023-03-15T05:49:41;96671.16;;;16.93;53.42
48778;BME280;34578;0.000;0.000;2023-03-15T05:54:56;96671.16;;;16.96;51.33
48778;BME280;34578;0.000;0.000;2023-03-15T06:00:15;96679.56;;;16.95;50.77
48778;BME280;34578;0.000;0.000;2023-03-15T06:05:16;96685.53;;;17.03;51.89
48778;BME280;34578;0.000;0.000;2023-03-15T06:10:18;96682.13;;;16.99;51.65
48778;BME280;34578;0.000;0.000;2023-03-15T06:15:18;96687.97;;;16.88;50.45
48778;BME280;34578;0.000;0.000;2023-03-15T06:20:21;96696.34;;;16.77;52.07
48778;BME280;34578;0.000;0.000;2023-03-15T06:25:21;96701.38;;;16.78;52.56
48778;BME280;34578;0.000;0.000;2023-03-15T06:30:22;96701.94;;;16.37;49.05
48778;BME280;34578;0.000;0.000;2023-03-15T06:35:30;96704.28;;;16.17;45.80
48778;BME280;34578;0.000;0.000;2023-03-15T06:40:30;96705.31;;;16.37;47.89
48778;BME280;34578;0.000;0.000;2023-03-15T06:45:31;96716.38;;;16.51;48.99
48778;BME280;34578;0.000;0.000;2023-03-15T06:50:32;96718.94;;;16.57;49.34
48778;BME280;34578;0.000;0.000;2023-03-15T06:55:33;96734.09;;;16.59;49.79
48778;BME280;34578;0.000;0.000;2023-03-15T07:00:34;96716.44;;;16.60;49.97
48778;BME280;34578;0.000;0.000;2023-03-15T07:05:35;96710.56;;;16.60;50.84
48778;BME280;34578;0.000;0.000;2023-03-15T07:10:36;96711.38;;;16.57;50.84
48778;BME280;34578;0.000;0.000;2023-03-15T07:15:36;96727.38;;;16.59;50.77
48778;BME280;34578;0.000;0.000;2023-03-15T07:20:37;96728.19;;;16.55;51.36
48778;BME280;34578;0.000;0.000;2023-03-15T07:25:37;96745.06;;;16.56;51.37
48778;BME280;34578;0.000;0.000;2023-03-15T07:30:37;96745.91;;;16.57;51.70
48778;BME280;34578;0.000;0.000;2023-03-15T07:35:38;96761.03;;;16.54;51.67
48778;BME280;34578;0.000;0.000;2023-03-15T07:40:38;96755.13;;;16.53;52.07
48778;BME280;34578;0.000;0.000;2023-03-15T07:45:39;96760.19;;;16.53;51.72
48778;BME280;34578;0.000;0.000;2023-03-15T07:50:40;96753.44;;;16.52;51.48
48778;BME280;34578;0.000;0.000;2023-03-15T07:55:40;96774.53;;;16.53;52.19
48778;BME280;34578;0.000;0.000;2023-03-15T08:00:41;96777.03;;;16.54;52.99
48778;BME280;34578;0.000;0.000;2023-03-15T08:05:41;96766.09;;;16.55;52.43
48778;BME280;34578;0.000;0.000;2023-03-15T08:10:43;96769.47;;;16.53;51.71
48778;BME280;34578;0.000;0.000;2023-03-15T08:15:46;96777.88;;;16.52;51.93
48778;BME280;34578;0.000;0.000;2023-03-15T08:20:47;96776.13;;;16.46;51.82
48778;BME280;34578;0.000;0.000;2023-03-15T08:25:47;96766.88;;;16.47;52.51
48778;BME280;34578;0.000;0.000;2023-03-15T08:30:49;96772.78;;;16.49;52.22
48778;BME280;34578;0.000;0.000;2023-03-15T08:35:53;96776.16;;;16.48;51.96
48778;BME280;34578;0.000;0.000;2023-03-15T08:40:57;96778.66;;;16.46;52.32
48778;BME280;34578;0.000;0.000;2023-03-15T08:45:57;96765.22;;;16.47;51.91
48778;BME280;34578;0.000;0.000;2023-03-15T08:51:02;96763.47;;;16.43;52.29
48778;BME280;34578;0.000;0.000;2023-03-15T08:56:03;96767.69;;;16.44;51.78
48778;BME280;34578;0.000;0.000;2023-03-15T09:01:04;96776.13;;;16.45;51.83
48778;BME280;34578;0.000;0.000;2023-03-15T09:06:05;96780.31;;;16.43;52.13
48778;BME280;34578;0.000;0.000;2023-03-15T09:11:05;96790.47;;;16.47;52.33
48778;BME280;34578;0.000;0.000;2023-03-15T09:16:05;96798.91;;;16.49;52.32
48778;BME280;34578;0.000;0.000;2023-03-15T09:21:06;96795.56;;;16.50;52.39
48778;BME280;34578;0.000;0.000;2023-03-15T09:26:09;96792.16;;;16.48;52.04
48778;BME280;34578;0.000;0.000;2023-03-15T09:31:10;96799.69;;;16.45;51.54
48778;BME280;34578;0.000;0.000;2023-03-15T09:36:10;96801.34;;;16.42;51.47
48778;BME280;34578;0.000;0.000;2023-03-15T09:41:19;96803.06;;;16.41;51.79
48778;BME280;34578;0.000;0.000;2023-03-15T09:46:30;96803.84;;;16.39;51.77
48778;BME280;34578;0.000;0.000;2023-03-15T09:51:45;96814.00;;;16.40;51.59
48778;BME280;34578;0.000;0.000;2023-03-15T09:56:57;96810.59;;;16.40;51.56
48778;BME280;34578;0.000;0.000;2023-03-15T10:02:15;96813.16;;;16.41;51.80
48778;BME280;34578;0.000;0.000;2023-03-15T10:07:17;96809.78;;;16.39;51.42
48778;BME280;34578;0.000;0.000;2023-03-15T10:12:33;96815.63;;;16.38;51.50
48778;BME280;34578;0.000;0.000;2023-03-15T10:18:13;96808.06;;;16.38;51.77
48778;BME280;34578;0.000;0.000;2023-03-15T10:23:22;96813.94;;;16.37;51.39
48778;BME280;34578;0.000;0.000;2023-03-15T10:28:29;96812.31;;;16.39;51.95
48778;BME280;34578;0.000;0.000;2023-03-15T10:33:36;96806.44;;;16.46;51.89
48778;BME280;34578;0.000;0.000;2023-03-15T10:38:37;96811.53;;;16.48;52.14
48778;BME280;34578;0.000;0.000;2023-03-15T10:43:37;96808.16;;;16.47;52.05
48778;BME280;34578;0.000;0.000;2023-03-15T10:48:51;96803.91;;;16.43;51.77
48778;BME280;34578;0.000;0.000;2023-03-15T10:53:58;96789.56;;;16.41;51.24
48778;BME280;34578;0.000;0.000;2023-03-15T10:59:00;96796.31;;;16.40;51.71
48778;BME280;34578;0.000;0.000;2023-03-15T11:04:13;96790.38;;;16.37;51.93
48778;BME280;34578;0.000;0.000;2023-03-15T11:09:20;96799.66;;;16.41;51.80
48778;BME280;34578;0.000;0.000;2023-03-15T11:14:47;96793.69;;;16.34;50.33
48778;BME280;34578;0.000;0.000;2023-03-15T11:19:55;96788.75;;;16.46;51.09
48778;BME280;34578;0.000;0.000;2023-03-15T11:24:56;96781.19;;;16.46;50.01
48778;BME280;34578;0.000;0.000;2023-03-15T11:29:59;96785.44;;;16.47;50.98
48778;BME280;34578;0.000;0.000;2023-03-15T11:35:09;96778.72;;;16.52;51.68
48778;BME280;34578;0.000;0.000;2023-03-15T11:40:20;96777.03;;;16.51;52.79
48778;BME280;34578;0.000;0.000;2023-03-15T11:51:04;96765.16;;;16.44;49.45
48778;BME280;34578;0.000;0.000;2023-03-15T11:56:26;96756.81;;;16.51;52.17
48778;BME280;34578;0.000;0.000;2023-03-15T12:01:27;96761.88;;;16.54;52.55
48778;BME280;34578;0.000;0.000;2023-03-15T12:06:36;96770.34;;;16.56;51.86
48778;BME280;34578;0.000;0.000;2023-03-15T12:11:38;96761.88;;;16.53;51.63
48778;BME280;34578;0.000;0.000;2023-03-15T12:16:44;96772.88;;;16.56;51.20
48778;BME280;34578;0.000;0.000;2023-03-15T12:21:55;96760.19;;;16.53;51.28
48778;BME280;34578;0.000;0.000;2023-03-15T12:27:22;96756.81;;;16.54;51.04
48778;BME280;34578;0.000;0.000;2023-03-15T12:32:21;96761.88;;;16.54;51.14
48778;BME280;34578;0.000;0.000;2023-03-15T12:47:42;96749.25;;;16.53;50.97
48778;BME280;34578;0.000;0.000;2023-03-15T12:52:44;96756.81;;;16.51;51.23
48778;BME280;34578;0.000;0.000;2023-03-15T12:57:49;96750.88;;;16.51;50.82
48778;BME280;34578;0.000;0.000;2023-03-15T13:03:14;96754.31;;;16.53;49.38
48778;BME280;34578;0.000;0.000;2023-03-15T13:08:30;96748.41;;;16.54;49.32
48778;BME280;34578;0.000;0.000;2023-03-15T13:13:37;96746.72;;;16.54;52.24
48778;BME280;34578;0.000;0.000;2023-03-15T13:18:45;96740.81;;;16.55;52.18
48778;BME280;34578;0.000;0.000;2023-03-15T13:23:51;96731.59;;;16.57;51.14
48778;BME280;34578;0.000;0.000;2023-03-15T13:29:12;96731.53;;;16.54;52.80
48778;BME280;34578;0.000;0.000;2023-03-15T13:34:21;96723.97;;;16.53;52.47
48778;BME280;34578;0.000;0.000;2023-03-15T13:39:25;96726.50;;;16.54;52.08
48778;BME280;34578;0.000;0.000;2023-03-15T13:44:27;96728.16;;;16.52;52.04
48778;BME280;34578;0.000;0.000;2023-03-15T13:49:32;96723.94;;;16.51;48.78
48778;BME280;34578;0.000;0.000;2023-03-15T13:54:33;96729.91;;;16.59;47.84
48778;BME280;34578;0.000;0.000;2023-03-15T13:59:52;96721.50;;;16.63;47.48
48778;BME280;34578;0.000;0.000;2023-03-15T14:04:58;96719.84;;;16.65;47.65
48778;BME280;34578;0.000;0.000;2023-03-15T14:10:21;96726.59;;;16.66;46.97
48778;BME280;34578;0.000;0.000;2023-03-15T14:15:34;96723.19;;;16.61;49.61
48778;BME280;34578;0.000;0.000;2023-03-15T14:20:41;96719.81;;;16.59;51.43
48778;BME280;34578;0.000;0.000;2023-03-15T14:25:42;96722.31;;;16.58;53.35
48778;BME280;34578;0.000;0.000;2023-03-15T14:30:53;96719.78;;;16.56;53.20
48778;BME280;34578;0.000;0.000;2023-03-15T14:35:58;96709.63;;;16.53;52.44
48778;BME280;34578;0.000;0.000;2023-03-15T14:41:21;96711.31;;;16.51;52.68
48778;BME280;34578;0.000;0.000;2023-03-15T14:46:23;96714.72;;;16.52;52.06
48778;BME280;34578;0.000;0.000;2023-03-15T14:51:23;96716.38;;;16.51;52.77
48778;BME280;34578;0.000;0.000;2023-03-15T14:56:24;96703.72;;;16.50;52.11
48778;BME280;34578;0.000;0.000;2023-03-15T15:01:25;96720.56;;;16.49;51.89
48778;BME280;34578;0.000;0.000;2023-03-15T15:06:28;96704.56;;;16.49;52.38
48778;BME280;34578;0.000;0.000;2023-03-15T15:11:29;96707.09;;;16.49;52.04
48778;BME280;34578;0.000;0.000;2023-03-15T15:16:29;96702.84;;;16.43;52.02
48778;BME280;34578;0.000;0.000;2023-03-15T15:21:30;96707.91;;;16.48;52.04
48778;BME280;34578;0.000;0.000;2023-03-15T15:26:31;96719.72;;;16.49;52.23
48778;BME280;34578;0.000;0.000;2023-03-15T15:31:32;96720.56;;;16.49;52.08
48778;BME280;34578;0.000;0.000;2023-03-15T15:36:36;96729.84;;;16.47;51.70
48778;BME280;34578;0.000;0.000;2023-03-15T15:41:37;96729.84;;;16.47;52.49
48778;BME280;34578;0.000;0.000;2023-03-15T15:46:37;96732.41;;;16.52;52.53
48778;BME280;34578;0.000;0.000;2023-03-15T15:51:42;96731.53;;;16.51;52.26
48778;BME280;34578;0.000;0.000;2023-03-15T15:56:53;96744.16;;;16.48;52.32
48778;BME280;34578;0.000;0.000;2023-03-15T16:01:55;96737.34;;;16.43;51.95
48778;BME280;34578;0.000;0.000;2023-03-15T16:06:58;96752.56;;;16.49;52.25
48778;BME280;34578;0.000;0.000;2023-03-15T16:12:00;96763.53;;;16.49;52.01
48778;BME280;34578;0.000;0.000;2023-03-15T16:17:01;96766.03;;;16.48;51.41
48778;BME280;34578;0.000;0.000;2023-03-15T16:22:01;96764.38;;;16.48;51.77
48778;BME280;34578;0.000;0.000;2023-03-15T16:27:04;96766.91;;;16.48;51.55
48778;BME280;34578;0.000;0.000;2023-03-15T16:32:05;96770.25;;;16.47;51.82
48778;BME280;34578;0.000;0.000;2023-03-15T16:37:11;96770.25;;;16.47;51.28
48778;BME280;34578;0.000;0.000;2023-03-15T16:42:14;96778.66;;;16.46;51.43
48778;BME280;34578;0.000;0.000;2023-03-15T16:47:14;96783.69;;;16.46;51.95
48778;BME280;34578;0.000;0.000;2023-03-15T16:52:15;96785.41;;;16.46;52.29
48778;BME280;34578;0.000;0.000;2023-03-15T16:57:19;96792.97;;;16.46;52.19
48778;BME280;34578;0.000;0.000;2023-03-15T17:02:24;96806.47;;;16.48;52.49
48778;BME280;34578;0.000;0.000;2023-03-15T17:07:29;96803.97;;;16.51;52.51
48778;BME280;34578;0.000;0.000;2023-03-15T17:12:30;96801.44;;;16.51;52.24
48778;BME280;34578;0.000;0.000;2023-03-15T17:17:31;96809.03;;;16.49;51.69
48778;BME280;34578;0.000;0.000;2023-03-15T17:22:31;96813.22;;;16.49;50.43
48778;BME280;34578;0.000;0.000;2023-03-15T17:27:35;96827.59;;;16.54;49.13
48778;BME280;34578;0.000;0.000;2023-03-15T17:32:36;96824.13;;;16.46;52.81
48778;BME280;34578;0.000;0.000;2023-03-15T17:37:37;96839.28;;;16.46;53.38
48778;BME280;34578;0.000;0.000;2023-03-15T17:42:40;96838.47;;;16.46;53.35
48778;BME280;34578;0.000;0.000;2023-03-15T17:47:40;96845.22;;;16.47;52.31
48778;BME280;34578;0.000;0.000;2023-03-15T17:52:41;96848.59;;;16.47;52.42
48778;BME280;34578;0.000;0.000;2023-03-15T17:57:43;96854.47;;;16.46;52.26
48778;BME280;34578;0.000;0.000;2023-03-15T18:02:44;96849.38;;;16.43;52.21
48778;BME280;34578;0.000;0.000;2023-03-15T18:07:48;96857.88;;;16.48;49.71
48778;BME280;34578;0.000;0.000;2023-03-15T18:12:48;96864.63;;;16.52;50.38
48778;BME280;34578;0.000;0.000;2023-03-15T18:17:49;96862.97;;;16.54;50.52
48778;BME280;34578;0.000;0.000;2023-03-15T18:22:50;96865.56;;;16.60;54.00
48778;BME280;34578;0.000;0.000;2023-03-15T18:27:51;96875.69;;;16.63;53.19
48778;BME280;34578;0.000;0.000;2023-03-15T18:32:52;96876.53;;;16.62;52.50
48778;BME280;34578;0.000;0.000;2023-03-15T18:37:53;96878.22;;;16.63;52.09
48778;BME280;34578;0.000;0.000;2023-03-15T18:42:55;96874.84;;;16.61;52.22
48778;BME280;34578;0.000;0.000;2023-03-15T18:47:57;96883.28;;;16.63;51.35
48778;BME280;34578;0.000;0.000;2023-03-15T18:52:59;96890.03;;;16.66;51.54
48778;BME280;34578;0.000;0.000;2023-03-15T18:58:00;96889.19;;;16.67;52.73
48778;BME280;34578;0.000;0.000;2023-03-15T19:03:01;96899.31;;;16.67;51.79
48778;BME280;34578;0.000;0.000;2023-03-15T19:08:02;96892.63;;;16.69;52.15
48778;BME280;34578;0.000;0.000;2023-03-15T19:13:03;96894.28;;;16.68;51.80
48778;BME280;34578;0.000;0.000;2023-03-15T19:18:04;96901.88;;;16.68;52.72
48778;BME280;34578;0.000;0.000;2023-03-15T19:23:04;96899.31;;;16.67;52.31
48778;BME280;34578;0.000;0.000;2023-03-15T19:28:05;96890.84;;;16.63;51.94
48778;BME280;34578;0.000;0.000;2023-03-15T19:33:06;96892.38;;;16.48;50.67
48778;BME280;34578;0.000;0.000;2023-03-15T19:38:06;96887.44;;;16.58;53.97
48778;BME280;34578;0.000;0.000;2023-03-15T19:43:06;96895.09;;;16.64;54.12
48778;BME280;34578;0.000;0.000;2023-03-15T19:48:08;96895.94;;;16.65;53.68
48778;BME280;34578;0.000;0.000;2023-03-15T19:53:09;96901.78;;;16.62;52.25
48778;BME280;34578;0.000;0.000;2023-03-15T19:58:11;96898.47;;;16.66;51.92
48778;BME280;34578;0.000;0.000;2023-03-15T20:03:11;96892.56;;;16.66;51.12
48778;BME280;34578;0.000;0.000;2023-03-15T20:08:11;96892.63;;;16.69;52.45
48778;BME280;34578;0.000;0.000;2023-03-15T20:13:12;96893.50;;;16.72;51.42
48778;BME280;34578;0.000;0.000;2023-03-15T20:18:13;96907.81;;;16.73;51.12
48778;BME280;34578;0.000;0.000;2023-03-15T20:23:17;96907.84;;;16.76;51.20
48778;BME280;34578;0.000;0.000;2023-03-15T20:28:18;96901.94;;;16.75;50.88
48778;BME280;34578;0.000;0.000;2023-03-15T20:33:18;96912.88;;;16.73;51.32
48778;BME280;34578;0.000;0.000;2023-03-15T20:38:18;96902.78;;;16.73;51.53
48778;BME280;34578;0.000;0.000;2023-03-15T20:43:19;96902.75;;;16.72;51.14
48778;BME280;34578;0.000;0.000;2023-03-15T20:48:20;96904.38;;;16.65;51.51
48778;BME280;34578;0.000;0.000;2023-03-15T20:53:22;96896.81;;;16.68;52.44
48778;BME280;34578;0.000;0.000;2023-03-15T20:58:23;96893.44;;;16.66;53.85
48778;BME280;34578;0.000;0.000;2023-03-15T21:03:23;96894.25;;;16.67;54.89
48778;BME280;34578;0.000;0.000;2023-03-15T21:08:24;96890.06;;;16.67;53.37
48778;BME280;34578;0.000;0.000;2023-03-15T21:13:24;96894.25;;;16.65;52.76
48778;BME280;34578;0.000;0.000;2023-03-15T21:18:24;96891.75;;;16.65;52.88
48778;BME280;34578;0.000;0.000;2023-03-15T21:23:25;96892.56;;;16.66;53.02
48778;BME280;34578;0.000;0.000;2023-03-15T21:28:27;96901.00;;;16.67;52.81
48778;BME280;34578;0.000;0.000;2023-03-15T21:33:28;96893.44;;;16.69;51.65
48778;BME280;34578;0.000;0.000;2023-03-15T21:38:31;96895.13;;;16.70;51.74
48778;BME280;34578;0.000;0.000;2023-03-15T21:43:32;96884.19;;;16.70;51.63
48778;BME280;34578;0.000;0.000;2023-03-15T21:48:33;96894.28;;;16.68;52.47
48778;BME280;34578;0.000;0.000;2023-03-15T21:53:35;96887.50;;;16.66;54.42
48778;BME280;34578;0.000;0.000;2023-03-15T21:58:35;96898.47;;;16.66;53.25
48778;BME280;34578;0.000;0.000;2023-03-15T22:03:35;96900.97;;;16.62;54.07
48778;BME280;34578;0.000;0.000;2023-03-15T22:08:36;96891.69;;;16.62;54.52
48778;BME280;34578;0.000;0.000;2023-03-15T22:13:36;96886.63;;;16.62;55.17
48778;BME280;34578;0.000;0.000;2023-03-15T22:18:36;96881.63;;;16.65;56.42
48778;BME280;34578;0.000;0.000;2023-03-15T22:23:37;96883.28;;;16.63;55.73
48778;BME280;34578;0.000;0.000;2023-03-15T22:28:37;96881.56;;;16.62;54.40
48778;BME280;34578;0.000;0.000;2023-03-15T22:33:38;96885.72;;;16.56;55.05
48778;BME280;34578;0.000;0.000;2023-03-15T22:38:38;96881.50;;;16.53;55.20
48778;BME280;34578;0.000;0.000;2023-03-15T22:43:38;96887.34;;;16.51;54.86
48778;BME280;34578;0.000;0.000;2023-03-15T22:48:39;96887.34;;;16.48;55.37
48778;BME280;34578;0.000;0.000;2023-03-15T22:53:39;96881.41;;;16.46;55.47
48778;BME280;34578;0.000;0.000;2023-03-15T22:58:40;96889.00;;;16.46;55.56
48778;BME280;34578;0.000;0.000;2023-03-15T23:03:40;96883.09;;;16.45;55.29
48778;BME280;34578;0.000;0.000;2023-03-15T23:08:41;96878.88;;;16.44;55.08
48778;BME280;34578;0.000;0.000;2023-03-15T23:13:41;96863.63;;;16.38;55.53
48778;BME280;34578;0.000;0.000;2023-03-15T23:18:42;96881.41;;;16.44;55.45
48778;BME280;34578;0.000;0.000;2023-03-15T23:23:43;96876.34;;;16.44;55.14
48778;BME280;34578;0.000;0.000;2023-03-15T23:28:43;96879.72;;;16.43;55.23
48778;BME280;34578;0.000;0.000;2023-03-15T23:33:43;96881.50;;;16.55;55.54
48778;BME280;34578;0.000;0.000;2023-03-15T23:38:46;96876.50;;;16.56;56.24
48778;BME280;34578;0.000;0.000;2023-03-15T23:43:46;96873.06;;;16.51;54.92
48778;BME280;34578;0.000;0.000;2023-03-15T23:48:46;96878.91;;;16.47;55.06
48778;BME280;34578;0.000;0.000;2023-03-15T23:53:47;96864.47;;;16.37;55.12
48778;BME280;34578;0.000;0.000;2023-03-15T23:58:47;96872.97;;;16.42;55.31
